Fingard — OJNG — position and weather

sailwx.info

Track history (hours):
 
Tides and Currents Weather Stations Pressure Air Temp Water Temp Dewpoint Dewpoint Depression Visibility Wind Speed Wind Dir Waves Ship Positions

Fingard

Last reported at 2014-Oct-31 10:33 UTC. Time now 2014-Oct-31 11:34 UTC.
Position N 51°53' E 004°24'.

Length 95 m; draft 4 m.

Type: Ship. MMSI: 230999000.

Date/timePositionNaut miles runAvg speedWind from/ knotsBaromVisibWave heightAir tempDewpointWater temp
2014-Oct-31 10:33N 51°53' E 004°24'0 0.0
2014-Oct-31 09:33N 51°53' E 004°24'0 0.0
2014-Oct-31 08:33N 51°53' E 004°24'0 0.0
2014-Oct-31 07:33N 51°53' E 004°24'0 0.0
2014-Oct-31 06:33N 51°53' E 004°24'0 0.0
2014-Oct-31 05:33N 51°53' E 004°24'0 0.0
2014-Oct-31 04:34N 51°53' E 004°24'0 0.0
2014-Oct-31 03:33N 51°53' E 004°24'0 0.0
2014-Oct-31 01:33N 51°53' E 004°24'0 0.0
2014-Oct-31 00:34N 51°53' E 004°24'0 0.0
2014-Oct-30 23:33N 51°53' E 004°24'0 0.0
2014-Oct-30 22:34N 51°53' E 004°24'0 0.0
2014-Oct-30 21:33N 51°53' E 004°24'0 0.0
2014-Oct-30 20:33N 51°53' E 004°24'0 0.0
2014-Oct-30 19:33N 51°53' E 004°24'0 0.0
2014-Oct-30 18:33N 51°53' E 004°24'0 0.0
2014-Oct-30 17:34N 51°53' E 004°24'0 0.0
2014-Oct-30 16:33N 51°53' E 004°24'0 0.0
2014-Oct-30 15:33N 51°53' E 004°24'3 2.5
2014-Oct-30 14:33N 51°54' E 004°20'9 8.9
2014-Oct-30 13:33N 51°58' E 004°08'9 8.7
2014-Oct-30 12:33N 52°00' E 003°54'6 5.9
2014-Oct-30 11:33N 51°56' E 003°47'0 0.2
2014-Oct-30 10:33N 51°56' E 003°47'0 0.0
2014-Oct-30 09:33N 51°56' E 003°48'4 4.5
2014-Oct-30 08:33N 51°58' E 003°42'9 9.4
2014-Oct-30 07:33N 51°56' E 003°27'9 9.4
2014-Oct-30 06:33N 51°53' E 003°13'8 7.8
2014-Oct-30 05:31N 51°50' E 003°01'22 9.5
2014-Oct-30 03:15N 51°40' E 002°30'810.6
2014-Oct-30 02:30N 51°34' E 002°22'9 9.7
2014-Oct-30 01:33N 51°26' E 002°13'9 9.1
2014-Oct-30 00:33N 51°18' E 002°08'8 7.9
2014-Oct-29 23:34N 51°12' E 001°59'8 7.8
2014-Oct-29 22:33N 51°08' E 001°48'8 7.6
2014-Oct-29 21:33N 51°03' E 001°40'8 8.0
2014-Oct-29 20:33N 50°56' E 001°32'31610.1
2014-Oct-28 13:21N 48°05' W 005°17'1112.3
2014-Oct-28 12:29N 47°56' W 005°09'1112.1
2014-Oct-28 11:34N 47°48' W 004°57'2512.0
2014-Oct-28 09:29N 47°33' W 004°28'1411.9
2014-Oct-28 08:20N 47°25' W 004°11'1411.9
2014-Oct-28 07:08N 47°17' W 003°54'3112.1
2014-Oct-28 04:33N 46°58' W 003°17'2812.2
2014-Oct-28 02:17N 46°41' W 002°44'912.3
2014-Oct-28 01:33N 46°36' W 002°34'1312.6
2014-Oct-28 00:34N 46°28' W 002°20'1312.6
2014-Oct-27 23:34N 46°21' W 002°05'1312.7
2014-Oct-27 22:33N 46°13' W 001°51'1212.4
2014-Oct-27 21:34N 46°08' W 001°35'1312.4
2014-Oct-27 20:29N 46°04' W 001°16'1210.3
2014-Oct-27 19:16N 45°58' W 001°00'3 2.6
2014-Oct-27 18:18N 45°57' W 000°57'0 0.0
2014-Oct-27 11:16N 45°57' W 000°57'0 0.0
2014-Oct-27 10:31N 45°57' W 000°57'0 0.0
2014-Oct-27 09:31N 45°57' W 000°57'0 0.0
2014-Oct-27 08:28N 45°57' W 000°57'0 0.0
2014-Oct-27 07:29N 45°57' W 000°57'0 0.0
2014-Oct-27 06:27N 45°57' W 000°57'0 0.0
2014-Oct-27 05:33N 45°57' W 000°57'0 0.0
2014-Oct-27 04:33N 45°57' W 000°57'0 0.0
2014-Oct-27 03:33N 45°57' W 000°57'0 0.0
2014-Oct-27 02:33N 45°57' W 000°57'0 0.0
2014-Oct-27 01:18N 45°57' W 000°57'0 0.0
2014-Oct-27 00:31N 45°57' W 000°57'30 2.7
2014-Oct-26 13:31N 46°08' W 001°37'5 2.4
2014-Oct-26 11:26N 46°08' W 001°44'5 5.9
2014-Oct-26 10:33N 46°12' W 001°49'9 8.6
2014-Oct-26 09:33N 46°17' W 001°59'8 8.4
2014-Oct-26 08:33N 46°22' W 002°09'9 8.6
2014-Oct-26 07:33N 46°26' W 002°20'10 9.1
2014-Oct-26 06:31N 46°32' W 002°31'203 6.0
2014-Oct-24 20:33N 49°53' W 003°15'11510.3
2014-Oct-24 09:22N 50°28' W 000°25'27 9.2
2014-Oct-24 06:28N 50°35' E 000°16'1010.9
2014-Oct-24 05:33N 50°38' E 000°31'1211.5
2014-Oct-24 04:33N 50°44' E 000°46'1111.2
2014-Oct-24 03:33N 50°51' E 001°01'1310.2
2014-Oct-24 02:20N 50°59' E 001°16'7 8.9
2014-Oct-24 01:34N 51°03' E 001°25'7 7.4
2014-Oct-24 00:33N 51°08' E 001°34'7 7.4
2014-Oct-23 23:33N 51°12' E 001°43'8 8.3
2014-Oct-23 22:33N 51°20' E 001°49'1010.3
2014-Oct-23 21:33N 51°29' E 001°56'1212.3
2014-Oct-23 20:33N 51°38' E 002°10'9310.2
2014-Oct-23 11:30N 52°50' E 003°46'1010.9
2014-Oct-23 10:33N 52°57' E 003°58'4310.7
2014-Oct-23 06:33N 53°29' E 004°45'9 9.4
2014-Oct-23 05:33N 53°33' E 004°59'9 9.0
2014-Oct-23 04:33N 53°35' E 005°14'9 9.3
2014-Oct-23 03:33N 53°39' E 005°28'1110.9
2014-Oct-23 02:33N 53°43' E 005°46'1211.7
2014-Oct-23 01:33N 53°47' E 006°04'5310.5
2014-Oct-22 20:33N 54°00' E 007°30'7 7.0
2014-Oct-22 19:33N 54°01' E 007°42'5 5.2
2014-Oct-22 18:33N 54°01' E 007°51'6 6.1
2014-Oct-22 17:33N 54°01' E 008°01'19 9.3
2014-Oct-22 15:33N 53°58' E 008°33'1212.1
2014-Oct-22 14:33N 53°50' E 008°48'13 1.9
2014-Oct-22 07:29N 53°54' E 009°10'0 0.0
2014-Oct-22 06:29N 53°54' E 009°10'0 0.0
2014-Oct-22 05:14N 53°54' E 009°10'0 0.0
2014-Oct-22 01:05N 53°54' E 009°10'0 0.0
2014-Oct-22 00:29N 53°54' E 009°10'0 0.0
2014-Oct-21 23:32N 53°54' E 009°10'0 0.0
2014-Oct-21 22:17N 53°54' E 009°10'0 0.0
2014-Oct-21 21:29N 53°54' E 009°10'0 0.0
2014-Oct-21 20:29N 53°54' E 009°10'0 0.0
2014-Oct-21 19:23N 53°54' E 009°10'0 0.0
2014-Oct-21 18:17N 53°54' E 009°10'0 0.0
2014-Oct-21 17:29N 53°54' E 009°10'0 0.0
2014-Oct-21 16:32N 53°54' E 009°10'0 0.0
2014-Oct-21 15:26N 53°54' E 009°10'0 0.0
2014-Oct-21 14:29N 53°54' E 009°10'0 0.0
2014-Oct-21 13:26N 53°54' E 009°10'0 0.0
2014-Oct-21 12:29N 53°54' E 009°10'0 0.0
2014-Oct-21 11:29N 53°54' E 009°10'  
Track history (hours):
 
Tides and Currents Weather Stations Pressure Air Temp Water Temp Dewpoint Dewpoint Depression Visibility Wind Speed Wind Dir Waves Ship Positions

Fingard

Last reported at 2014-Oct-31 10:33 UTC. Time now 2014-Oct-31 11:34 UTC.
Position N 51°53' E 004°24'.

Length 95 m; draft 4 m.

Type: Ship. MMSI: 230999000.

Date/timePositionNaut miles runAvg speedWind from/ knotsBaromVisibWave heightAir tempDewpointWater temp
2014-Oct-31 10:33N 51°53' E 004°24'0 0.0
2014-Oct-31 09:33N 51°53' E 004°24'0 0.0
2014-Oct-31 08:33N 51°53' E 004°24'0 0.0
2014-Oct-31 07:33N 51°53' E 004°24'0 0.0
2014-Oct-31 06:33N 51°53' E 004°24'0 0.0
2014-Oct-31 05:33N 51°53' E 004°24'0 0.0
2014-Oct-31 04:34N 51°53' E 004°24'0 0.0
2014-Oct-31 03:33N 51°53' E 004°24'0 0.0
2014-Oct-31 01:33N 51°53' E 004°24'0 0.0
2014-Oct-31 00:34N 51°53' E 004°24'0 0.0
2014-Oct-30 23:33N 51°53' E 004°24'0 0.0
2014-Oct-30 22:34N 51°53' E 004°24'0 0.0
2014-Oct-30 21:33N 51°53' E 004°24'0 0.0
2014-Oct-30 20:33N 51°53' E 004°24'0 0.0
2014-Oct-30 19:33N 51°53' E 004°24'0 0.0
2014-Oct-30 18:33N 51°53' E 004°24'0 0.0
2014-Oct-30 17:34N 51°53' E 004°24'0 0.0
2014-Oct-30 16:33N 51°53' E 004°24'0 0.0
2014-Oct-30 15:33N 51°53' E 004°24'3 2.5
2014-Oct-30 14:33N 51°54' E 004°20'9 8.9
2014-Oct-30 13:33N 51°58' E 004°08'9 8.7
2014-Oct-30 12:33N 52°00' E 003°54'6 5.9
2014-Oct-30 11:33N 51°56' E 003°47'0 0.2
2014-Oct-30 10:33N 51°56' E 003°47'0 0.0
2014-Oct-30 09:33N 51°56' E 003°48'4 4.5
2014-Oct-30 08:33N 51°58' E 003°42'9 9.4
2014-Oct-30 07:33N 51°56' E 003°27'9 9.4
2014-Oct-30 06:33N 51°53' E 003°13'8 7.8
2014-Oct-30 05:31N 51°50' E 003°01'22 9.5
2014-Oct-30 03:15N 51°40' E 002°30'810.6
2014-Oct-30 02:30N 51°34' E 002°22'9 9.7
2014-Oct-30 01:33N 51°26' E 002°13'9 9.1
2014-Oct-30 00:33N 51°18' E 002°08'8 7.9
2014-Oct-29 23:34N 51°12' E 001°59'8 7.8
2014-Oct-29 22:33N 51°08' E 001°48'8 7.6
2014-Oct-29 21:33N 51°03' E 001°40'8 8.0
2014-Oct-29 20:33N 50°56' E 001°32'31610.1
2014-Oct-28 13:21N 48°05' W 005°17'1112.3
2014-Oct-28 12:29N 47°56' W 005°09'1112.1
2014-Oct-28 11:34N 47°48' W 004°57'2512.0
2014-Oct-28 09:29N 47°33' W 004°28'1411.9
2014-Oct-28 08:20N 47°25' W 004°11'1411.9
2014-Oct-28 07:08N 47°17' W 003°54'3112.1
2014-Oct-28 04:33N 46°58' W 003°17'2812.2
2014-Oct-28 02:17N 46°41' W 002°44'912.3
2014-Oct-28 01:33N 46°36' W 002°34'1312.6
2014-Oct-28 00:34N 46°28' W 002°20'1312.6
2014-Oct-27 23:34N 46°21' W 002°05'1312.7
2014-Oct-27 22:33N 46°13' W 001°51'1212.4
2014-Oct-27 21:34N 46°08' W 001°35'1312.4
2014-Oct-27 20:29N 46°04' W 001°16'1210.3
2014-Oct-27 19:16N 45°58' W 001°00'3 2.6
2014-Oct-27 18:18N 45°57' W 000°57'0 0.0
2014-Oct-27 11:16N 45°57' W 000°57'0 0.0
2014-Oct-27 10:31N 45°57' W 000°57'0 0.0
2014-Oct-27 09:31N 45°57' W 000°57'0 0.0
2014-Oct-27 08:28N 45°57' W 000°57'0 0.0
2014-Oct-27 07:29N 45°57' W 000°57'0 0.0
2014-Oct-27 06:27N 45°57' W 000°57'0 0.0
2014-Oct-27 05:33N 45°57' W 000°57'0 0.0
2014-Oct-27 04:33N 45°57' W 000°57'0 0.0
2014-Oct-27 03:33N 45°57' W 000°57'0 0.0
2014-Oct-27 02:33N 45°57' W 000°57'0 0.0
2014-Oct-27 01:18N 45°57' W 000°57'0 0.0
2014-Oct-27 00:31N 45°57' W 000°57'30 2.7
2014-Oct-26 13:31N 46°08' W 001°37'5 2.4
2014-Oct-26 11:26N 46°08' W 001°44'5 5.9
2014-Oct-26 10:33N 46°12' W 001°49'9 8.6
2014-Oct-26 09:33N 46°17' W 001°59'8 8.4
2014-Oct-26 08:33N 46°22' W 002°09'9 8.6
2014-Oct-26 07:33N 46°26' W 002°20'10 9.1
2014-Oct-26 06:31N 46°32' W 002°31'203 6.0
2014-Oct-24 20:33N 49°53' W 003°15'11510.3
2014-Oct-24 09:22N 50°28' W 000°25'27 9.2
2014-Oct-24 06:28N 50°35' E 000°16'1010.9
2014-Oct-24 05:33N 50°38' E 000°31'1211.5
2014-Oct-24 04:33N 50°44' E 000°46'1111.2
2014-Oct-24 03:33N 50°51' E 001°01'1310.2
2014-Oct-24 02:20N 50°59' E 001°16'7 8.9
2014-Oct-24 01:34N 51°03' E 001°25'7 7.4
2014-Oct-24 00:33N 51°08' E 001°34'7 7.4
2014-Oct-23 23:33N 51°12' E 001°43'8 8.3
2014-Oct-23 22:33N 51°20' E 001°49'1010.3
2014-Oct-23 21:33N 51°29' E 001°56'1212.3
2014-Oct-23 20:33N 51°38' E 002°10'9310.2
2014-Oct-23 11:30N 52°50' E 003°46'1010.9
2014-Oct-23 10:33N 52°57' E 003°58'4310.7
2014-Oct-23 06:33N 53°29' E 004°45'9 9.4
2014-Oct-23 05:33N 53°33' E 004°59'9 9.0
2014-Oct-23 04:33N 53°35' E 005°14'9 9.3
2014-Oct-23 03:33N 53°39' E 005°28'1110.9
2014-Oct-23 02:33N 53°43' E 005°46'1211.7
2014-Oct-23 01:33N 53°47' E 006°04'5310.5
2014-Oct-22 20:33N 54°00' E 007°30'7 7.0
2014-Oct-22 19:33N 54°01' E 007°42'5 5.2
2014-Oct-22 18:33N 54°01' E 007°51'6 6.1
2014-Oct-22 17:33N 54°01' E 008°01'19 9.3
2014-Oct-22 15:33N 53°58' E 008°33'1212.1
2014-Oct-22 14:33N 53°50' E 008°48'13 1.9
2014-Oct-22 07:29N 53°54' E 009°10'0 0.0
2014-Oct-22 06:29N 53°54' E 009°10'0 0.0
2014-Oct-22 05:14N 53°54' E 009°10'0 0.0
2014-Oct-22 01:05N 53°54' E 009°10'0 0.0
2014-Oct-22 00:29N 53°54' E 009°10'0 0.0
2014-Oct-21 23:32N 53°54' E 009°10'0 0.0
2014-Oct-21 22:17N 53°54' E 009°10'0 0.0
2014-Oct-21 21:29N 53°54' E 009°10'0 0.0
2014-Oct-21 20:29N 53°54' E 009°10'0 0.0
2014-Oct-21 19:23N 53°54' E 009°10'0 0.0
2014-Oct-21 18:17N 53°54' E 009°10'0 0.0
2014-Oct-21 17:29N 53°54' E 009°10'0 0.0
2014-Oct-21 16:32N 53°54' E 009°10'0 0.0
2014-Oct-21 15:26N 53°54' E 009°10'0 0.0
2014-Oct-21 14:29N 53°54' E 009°10'0 0.0
2014-Oct-21 13:26N 53°54' E 009°10'0 0.0
2014-Oct-21 12:29N 53°54' E 009°10'0 0.0
2014-Oct-21 11:29N 53°54' E 009°10'  

Dump ship's entire track history